sensor_id;sensor_type;location;lat;lon;timestamp;temperature;humidity
5743;DHT22;2896;53.500;10.020;2023-02-26T00:00:07;-0.70;1.00
5743;DHT22;2896;53.500;10.020;2023-02-26T00:02:37;-0.60;1.00
5743;DHT22;2896;53.500;10.020;2023-02-26T00:05:04;-0.70;1.00
5743;DHT22;2896;53.500;10.020;2023-02-26T00:07:31;-0.70;1.00
5743;DHT22;2896;53.500;10.020;2023-02-26T00:09:58;-0.80;1.00
5743;DHT22;2896;53.500;10.020;2023-02-26T00:12:26;-0.80;1.00
5743;DHT22;2896;53.500;10.020;2023-02-26T00:14:53;-0.80;1.00
5743;DHT22;2896;53.500;10.020;2023-02-26T00:17:36;-0.80;1.00
5743;DHT22;2896;53.500;10.020;2023-02-26T00:20:08;-0.80;1.00
5743;DHT22;2896;53.500;10.020;2023-02-26T00:22:36;-0.90;1.00
5743;DHT22;2896;53.500;10.020;2023-02-26T00:25:03;-1.00;1.00
5743;DHT22;2896;53.500;10.020;2023-02-26T00:27:30;-0.90;1.00
5743;DHT22;2896;53.500;10.020;2023-02-26T00:29:57;-0.90;1.00
5743;DHT22;2896;53.500;10.020;2023-02-26T00:32:24;-0.80;1.00
5743;DHT22;2896;53.500;10.020;2023-02-26T00:34:53;-0.80;1.00
5743;DHT22;2896;53.500;10.020;2023-02-26T00:37:27;-0.80;1.00
5743;DHT22;2896;53.500;10.020;2023-02-26T00:40:11;-0.90;1.00
5743;DHT22;2896;53.500;10.020;2023-02-26T00:42:41;-0.90;1.00
5743;DHT22;2896;53.500;10.020;2023-02-26T00:45:09;-0.90;1.00
5743;DHT22;2896;53.500;10.020;2023-02-26T00:47:41;-0.90;1.00
5743;DHT22;2896;53.500;10.020;2023-02-26T00:50:17;-1.00;1.00
5743;DHT22;2896;53.500;10.020;2023-02-26T00:52:51;-1.00;1.00
5743;DHT22;2896;53.500;10.020;2023-02-26T00:55:18;-1.00;1.00
5743;DHT22;2896;53.500;10.020;2023-02-26T00:57:45;-1.00;1.00
5743;DHT22;2896;53.500;10.020;2023-02-26T01:00:12;-0.90;1.00
5743;DHT22;2896;53.500;10.020;2023-02-26T01:02:40;-0.80;1.00
5743;DHT22;2896;53.500;10.020;2023-02-26T01:05:08;-0.90;1.00
5743;DHT22;2896;53.500;10.020;2023-02-26T01:07:41;-0.90;1.00
5743;DHT22;2896;53.500;10.020;2023-02-26T01:10:10;-1.00;1.00
5743;DHT22;2896;53.500;10.020;2023-02-26T01:12:37;-1.00;1.00
5743;DHT22;2896;53.500;10.020;2023-02-26T01:15:05;-1.00;1.00
5743;DHT22;2896;53.500;10.020;2023-02-26T01:17:36;-1.00;1.00
5743;DHT22;2896;53.500;10.020;2023-02-26T01:20:08;-1.00;1.00
5743;DHT22;2896;53.500;10.020;2023-02-26T01:22:41;-0.80;1.00
5743;DHT22;2896;53.500;10.020;2023-02-26T01:25:11;-0.80;1.00
5743;DHT22;2896;53.500;10.020;2023-02-26T01:27:38;-0.60;1.00
5743;DHT22;2896;53.500;10.020;2023-02-26T01:30:07;-0.70;1.00
5743;DHT22;2896;53.500;10.020;2023-02-26T01:32:41;-0.60;1.00
5743;DHT22;2896;53.500;10.020;2023-02-26T01:35:16;-0.70;1.00
5743;DHT22;2896;53.500;10.020;2023-02-26T01:37:52;-0.70;1.00
5743;DHT22;2896;53.500;10.020;2023-02-26T01:40:34;-0.80;1.00
5743;DHT22;2896;53.500;10.020;2023-02-26T01:43:06;-0.80;1.00
5743;DHT22;2896;53.500;10.020;2023-02-26T01:45:54;-0.80;1.00
5743;DHT22;2896;53.500;10.020;2023-02-26T01:48:31;-0.80;1.00
5743;DHT22;2896;53.500;10.020;2023-02-26T01:50:59;-0.80;1.00
5743;DHT22;2896;53.500;10.020;2023-02-26T01:53:27;-0.80;1.00
5743;DHT22;2896;53.500;10.020;2023-02-26T01:55:56;-0.80;1.00
5743;DHT22;2896;53.500;10.020;2023-02-26T01:58:25;-0.60;1.00
5743;DHT22;2896;53.500;10.020;2023-02-26T02:00:52;-0.60;1.00
5743;DHT22;2896;53.500;10.020;2023-02-26T02:03:20;-0.60;99.90
5743;DHT22;2896;53.500;10.020;2023-02-26T02:05:50;-0.60;99.90
5743;DHT22;2896;53.500;10.020;2023-02-26T02:08:19;-0.60;99.90
5743;DHT22;2896;53.500;10.020;2023-02-26T02:10:49;-0.50;99.90
5743;DHT22;2896;53.500;10.020;2023-02-26T02:13:24;-0.40;99.90
5743;DHT22;2896;53.500;10.020;2023-02-26T02:15:58;-0.40;99.90
5743;DHT22;2896;53.500;10.020;2023-02-26T02:18:36;1.70;99.90
5743;DHT22;2896;53.500;10.020;2023-02-26T02:21:27;-0.20;99.90
5743;DHT22;2896;53.500;10.020;2023-02-26T02:23:59;-0.20;99.90
5743;DHT22;2896;53.500;10.020;2023-02-26T02:32:11;-0.30;99.90
5743;DHT22;2896;53.500;10.020;2023-02-26T02:34:44;-0.30;99.90
5743;DHT22;2896;53.500;10.020;2023-02-26T02:37:15;-0.40;99.90
5743;DHT22;2896;53.500;10.020;2023-02-26T02:39:46;-0.50;99.90
5743;DHT22;2896;53.500;10.020;2023-02-26T02:42:20;-0.60;99.90
5743;DHT22;2896;53.500;10.020;2023-02-26T02:44:54;-0.70;99.90
5743;DHT22;2896;53.500;10.020;2023-02-26T02:47:24;-0.90;99.90
5743;DHT22;2896;53.500;10.020;2023-02-26T02:49:58;-1.00;99.90
5743;DHT22;2896;53.500;10.020;2023-02-26T02:52:29;-1.00;99.90
5743;DHT22;2896;53.500;10.020;2023-02-26T02:55:01;-1.10;99.90
5743;DHT22;2896;53.500;10.020;2023-02-26T02:57:32;-1.20;99.90
5743;DHT22;2896;53.500;10.020;2023-02-26T03:00:04;-1.30;99.90
5743;DHT22;2896;53.500;10.020;2023-02-26T03:02:40;-1.40;99.90
5743;DHT22;2896;53.500;10.020;2023-02-26T03:05:08;-1.40;99.90
5743;DHT22;2896;53.500;10.020;2023-02-26T03:07:38;-1.40;99.90
5743;DHT22;2896;53.500;10.020;2023-02-26T03:10:08;-1.40;99.90
5743;DHT22;2896;53.500;10.020;2023-02-26T03:12:35;-1.40;1.00
5743;DHT22;2896;53.500;10.020;2023-02-26T03:15:03;-1.40;1.00
5743;DHT22;2896;53.500;10.020;2023-02-26T03:17:35;-1.50;1.00
5743;DHT22;2896;53.500;10.020;2023-02-26T03:20:12;-1.50;1.00
5743;DHT22;2896;53.500;10.020;2023-02-26T03:22:45;-1.60;1.00
5743;DHT22;2896;53.500;10.020;2023-02-26T03:25:19;-1.60;1.00
5743;DHT22;2896;53.500;10.020;2023-02-26T03:27:54;-1.60;1.00
5743;DHT22;2896;53.500;10.020;2023-02-26T03:30:25;-1.70;1.00
5743;DHT22;2896;53.500;10.020;2023-02-26T03:33:01;-1.70;1.00
5743;DHT22;2896;53.500;10.020;2023-02-26T03:35:34;-1.70;1.00
5743;DHT22;2896;53.500;10.020;2023-02-26T03:38:06;-1.70;1.00
5743;DHT22;2896;53.500;10.020;2023-02-26T03:40:38;-1.80;1.00
5743;DHT22;2896;53.500;10.020;2023-02-26T03:43:10;-1.80;1.00
5743;DHT22;2896;53.500;10.020;2023-02-26T03:45:39;-1.90;1.00
5743;DHT22;2896;53.500;10.020;2023-02-26T03:48:10;-1.90;1.00
5743;DHT22;2896;53.500;10.020;2023-02-26T03:50:42;-1.90;1.00
5743;DHT22;2896;53.500;10.020;2023-02-26T03:53:13;-2.00;1.00
5743;DHT22;2896;53.500;10.020;2023-02-26T03:55:44;-1.90;1.00
5743;DHT22;2896;53.500;10.020;2023-02-26T03:58:12;-2.00;1.00
5743;DHT22;2896;53.500;10.020;2023-02-26T04:00:41;-1.90;1.00
5743;DHT22;2896;53.500;10.020;2023-02-26T04:03:13;-2.00;1.00
5743;DHT22;2896;53.500;10.020;2023-02-26T04:05:45;-2.00;1.00
5743;DHT22;2896;53.500;10.020;2023-02-26T04:08:13;-1.90;1.00
5743;DHT22;2896;53.500;10.020;2023-02-26T04:10:42;-1.80;1.00
5743;DHT22;2896;53.500;10.020;2023-02-26T04:13:09;-1.90;1.00
5743;DHT22;2896;53.500;10.020;2023-02-26T04:15:36;-1.80;1.00
5743;DHT22;2896;53.500;10.020;2023-02-26T04:18:03;-1.80;1.00
5743;DHT22;2896;53.500;10.020;2023-02-26T04:20:30;-1.80;1.00
5743;DHT22;2896;53.500;10.020;2023-02-26T04:22:58;-1.90;1.00
5743;DHT22;2896;53.500;10.020;2023-02-26T04:25:25;-1.90;1.00
5743;DHT22;2896;53.500;10.020;2023-02-26T04:27:51;-1.70;1.00
5743;DHT22;2896;53.500;10.020;2023-02-26T04:30:18;-1.60;1.00
5743;DHT22;2896;53.500;10.020;2023-02-26T04:32:45;-1.60;1.00
5743;DHT22;2896;53.500;10.020;2023-02-26T04:35:13;-1.60;1.00
5743;DHT22;2896;53.500;10.020;2023-02-26T04:37:39;-1.70;1.00
5743;DHT22;2896;53.500;10.020;2023-02-26T04:40:09;-1.60;1.00
5743;DHT22;2896;53.500;10.020;2023-02-26T04:42:35;-1.60;99.90
5743;DHT22;2896;53.500;10.020;2023-02-26T04:45:02;-1.60;99.90
5743;DHT22;2896;53.500;10.020;2023-02-26T04:47:29;-1.70;99.90
5743;DHT22;2896;53.500;10.020;2023-02-26T04:49:56;-1.70;99.90
5743;DHT22;2896;53.500;10.020;2023-02-26T04:52:22;-1.70;99.90
5743;DHT22;2896;53.500;10.020;2023-02-26T04:54:49;-1.70;99.90
5743;DHT22;2896;53.500;10.020;2023-02-26T04:57:17;-1.70;99.90
5743;DHT22;2896;53.500;10.020;2023-02-26T04:59:44;-1.70;99.90
5743;DHT22;2896;53.500;10.020;2023-02-26T05:02:10;-1.70;99.90
5743;DHT22;2896;53.500;10.020;2023-02-26T05:04:37;-1.80;99.90
5743;DHT22;2896;53.500;10.020;2023-02-26T05:07:04;-1.80;99.90
5743;DHT22;2896;53.500;10.020;2023-02-26T05:09:30;-1.90;99.90
5743;DHT22;2896;53.500;10.020;2023-02-26T05:11:57;-1.90;99.90
5743;DHT22;2896;53.500;10.020;2023-02-26T05:14:25;-2.00;99.90
5743;DHT22;2896;53.500;10.020;2023-02-26T05:16:52;-2.00;99.90
5743;DHT22;2896;53.500;10.020;2023-02-26T05:19:18;-2.10;99.90
5743;DHT22;2896;53.500;10.020;2023-02-26T05:21:45;-2.00;99.90
5743;DHT22;2896;53.500;10.020;2023-02-26T05:24:13;-2.10;99.90
5743;DHT22;2896;53.500;10.020;2023-02-26T05:26:40;-2.00;99.90
5743;DHT22;2896;53.500;10.020;2023-02-26T05:29:07;-2.00;99.90
5743;DHT22;2896;53.500;10.020;2023-02-26T05:31:35;-2.00;99.90
5743;DHT22;2896;53.500;10.020;2023-02-26T05:34:02;-2.00;99.90
5743;DHT22;2896;53.500;10.020;2023-02-26T05:36:29;-2.10;99.90
5743;DHT22;2896;53.500;10.020;2023-02-26T05:38:55;-2.10;99.90
5743;DHT22;2896;53.500;10.020;2023-02-26T05:41:22;-2.00;99.90
5743;DHT22;2896;53.500;10.020;2023-02-26T05:43:49;-2.00;99.90
5743;DHT22;2896;53.500;10.020;2023-02-26T05:46:16;-1.90;99.90
5743;DHT22;2896;53.500;10.020;2023-02-26T05:48:43;-1.90;1.00
5743;DHT22;2896;53.500;10.020;2023-02-26T05:51:10;-1.90;99.90
5743;DHT22;2896;53.500;10.020;2023-02-26T05:53:37;-2.00;99.90
5743;DHT22;2896;53.500;10.020;2023-02-26T05:56:04;-2.00;1.00
5743;DHT22;2896;53.500;10.020;2023-02-26T05:58:31;-1.90;1.00
5743;DHT22;2896;53.500;10.020;2023-02-26T06:00:58;-2.00;1.00
5743;DHT22;2896;53.500;10.020;2023-02-26T06:03:25;-2.10;1.00
5743;DHT22;2896;53.500;10.020;2023-02-26T06:05:53;-2.10;1.00
5743;DHT22;2896;53.500;10.020;2023-02-26T06:08:19;-2.10;1.00
5743;DHT22;2896;53.500;10.020;2023-02-26T06:10:46;-2.10;1.00
5743;DHT22;2896;53.500;10.020;2023-02-26T06:13:12;-2.20;1.00
5743;DHT22;2896;53.500;10.020;2023-02-26T06:15:39;-2.20;1.00
5743;DHT22;2896;53.500;10.020;2023-02-26T06:18:06;-2.30;1.00
5743;DHT22;2896;53.500;10.020;2023-02-26T06:20:32;-2.20;1.00
5743;DHT22;2896;53.500;10.020;2023-02-26T06:23:01;-2.20;1.00
5743;DHT22;2896;53.500;10.020;2023-02-26T06:25:28;0.20;1.00
5743;DHT22;2896;53.500;10.020;2023-02-26T06:27:55;-2.20;1.00
5743;DHT22;2896;53.500;10.020;2023-02-26T06:30:21;-2.30;1.00
5743;DHT22;2896;53.500;10.020;2023-02-26T06:32:49;-2.70;1.00
5743;DHT22;2896;53.500;10.020;2023-02-26T06:35:15;-2.30;1.00
5743;DHT22;2896;53.500;10.020;2023-02-26T06:37:42;-2.30;1.00
5743;DHT22;2896;53.500;10.020;2023-02-26T06:40:12;-2.20;1.00
5743;DHT22;2896;53.500;10.020;2023-02-26T06:42:39;-2.20;1.00
5743;DHT22;2896;53.500;10.020;2023-02-26T06:45:06;-2.10;1.00
5743;DHT22;2896;53.500;10.020;2023-02-26T06:47:33;-2.10;1.00
5743;DHT22;2896;53.500;10.020;2023-02-26T06:50:00;-2.00;1.00
5743;DHT22;2896;53.500;10.020;2023-02-26T06:52:28;-1.90;1.00
5743;DHT22;2896;53.500;10.020;2023-02-26T06:54:55;-1.60;1.00
5743;DHT22;2896;53.500;10.020;2023-02-26T06:57:23;-1.70;1.00
5743;DHT22;2896;53.500;10.020;2023-02-26T06:59:49;-1.60;1.00
5743;DHT22;2896;53.500;10.020;2023-02-26T07:02:18;-1.40;1.00
5743;DHT22;2896;53.500;10.020;2023-02-26T07:04:45;-1.40;99.90
5743;DHT22;2896;53.500;10.020;2023-02-26T07:07:12;-1.30;99.90
5743;DHT22;2896;53.500;10.020;2023-02-26T07:09:39;-1.20;99.90
5743;DHT22;2896;53.500;10.020;2023-02-26T07:12:06;-1.10;99.90
5743;DHT22;2896;53.500;10.020;2023-02-26T07:14:34;-1.00;99.90
5743;DHT22;2896;53.500;10.020;2023-02-26T07:17:00;-0.80;99.90
5743;DHT22;2896;53.500;10.020;2023-02-26T07:19:27;1.10;99.90
5743;DHT22;2896;53.500;10.020;2023-02-26T07:21:54;-0.60;99.90
5743;DHT22;2896;53.500;10.020;2023-02-26T07:24:20;-0.20;99.90
5743;DHT22;2896;53.500;10.020;2023-02-26T07:26:47;-0.20;99.90
5743;DHT22;2896;53.500;10.020;2023-02-26T07:29:14;-0.10;99.90
5743;DHT22;2896;53.500;10.020;2023-02-26T07:31:42;0.10;99.90
5743;DHT22;2896;53.500;10.020;2023-02-26T07:34:08;0.10;99.90
5743;DHT22;2896;53.500;10.020;2023-02-26T07:36:35;0.30;99.90
5743;DHT22;2896;53.500;10.020;2023-02-26T07:39:02;0.40;99.90
5743;DHT22;2896;53.500;10.020;2023-02-26T07:41:29;0.50;99.90
5743;DHT22;2896;53.500;10.020;2023-02-26T07:43:55;0.50;99.90
5743;DHT22;2896;53.500;10.020;2023-02-26T07:46:22;0.70;99.90
5743;DHT22;2896;53.500;10.020;2023-02-26T07:48:50;0.70;99.90
5743;DHT22;2896;53.500;10.020;2023-02-26T07:51:16;0.70;99.90
5743;DHT22;2896;53.500;10.020;2023-02-26T07:53:43;1.10;99.90
5743;DHT22;2896;53.500;10.020;2023-02-26T07:56:09;1.00;99.90
5743;DHT22;2896;53.500;10.020;2023-02-26T07:58:36;1.10;99.90
5743;DHT22;2896;53.500;10.020;2023-02-26T08:01:03;1.00;99.90
5743;DHT22;2896;53.500;10.020;2023-02-26T08:03:30;1.00;99.90
5743;DHT22;2896;53.500;10.020;2023-02-26T08:05:58;1.30;99.90
5743;DHT22;2896;53.500;10.020;2023-02-26T08:08:25;1.50;99.90
5743;DHT22;2896;53.500;10.020;2023-02-26T08:10:52;1.20;99.90
5743;DHT22;2896;53.500;10.020;2023-02-26T08:13:18;1.10;99.90
5743;DHT22;2896;53.500;10.020;2023-02-26T08:15:46;1.20;99.90
5743;DHT22;2896;53.500;10.020;2023-02-26T08:18:13;1.00;99.90
5743;DHT22;2896;53.500;10.020;2023-02-26T08:20:40;1.40;99.90
5743;DHT22;2896;53.500;10.020;2023-02-26T08:23:08;1.40;99.90
5743;DHT22;2896;53.500;10.020;2023-02-26T08:25:35;1.50;99.90
5743;DHT22;2896;53.500;10.020;2023-02-26T08:28:01;1.60;99.90
5743;DHT22;2896;53.500;10.020;2023-02-26T08:30:28;1.70;99.90
5743;DHT22;2896;53.500;10.020;2023-02-26T08:32:55;1.70;99.90
5743;DHT22;2896;53.500;10.020;2023-02-26T08:35:22;1.40;99.90
5743;DHT22;2896;53.500;10.020;2023-02-26T08:37:48;1.50;99.90
5743;DHT22;2896;53.500;10.020;2023-02-26T08:40:17;1.70;99.90
5743;DHT22;2896;53.500;10.020;2023-02-26T08:42:43;2.00;99.90
5743;DHT22;2896;53.500;10.020;2023-02-26T08:45:10;2.10;99.90
5743;DHT22;2896;53.500;10.020;2023-02-26T08:47:37;1.70;99.90
5743;DHT22;2896;53.500;10.020;2023-02-26T08:50:06;2.10;99.90
5743;DHT22;2896;53.500;10.020;2023-02-26T08:52:33;2.10;99.90
5743;DHT22;2896;53.500;10.020;2023-02-26T08:54:59;2.30;99.90
5743;DHT22;2896;53.500;10.020;2023-02-26T08:57:27;2.10;99.90
5743;DHT22;2896;53.500;10.020;2023-02-26T08:59:54;2.00;99.90
5743;DHT22;2896;53.500;10.020;2023-02-26T09:02:21;2.30;99.90
5743;DHT22;2896;53.500;10.020;2023-02-26T09:04:47;2.30;99.90
5743;DHT22;2896;53.500;10.020;2023-02-26T09:07:14;2.50;99.90
5743;DHT22;2896;53.500;10.020;2023-02-26T09:09:41;2.60;99.90
5743;DHT22;2896;53.500;10.020;2023-02-26T09:12:07;2.60;99.90
5743;DHT22;2896;53.500;10.020;2023-02-26T09:14:35;2.70;99.90
5743;DHT22;2896;53.500;10.020;2023-02-26T09:17:02;2.80;99.90
5743;DHT22;2896;53.500;10.020;2023-02-26T09:19:28;2.90;99.90
5743;DHT22;2896;53.500;10.020;2023-02-26T09:21:55;3.00;99.90
5743;DHT22;2896;53.500;10.020;2023-02-26T09:24:22;2.90;99.90
5743;DHT22;2896;53.500;10.020;2023-02-26T09:26:48;3.00;99.90
5743;DHT22;2896;53.500;10.020;2023-02-26T09:29:15;3.00;99.90
5743;DHT22;2896;53.500;10.020;2023-02-26T09:31:43;3.10;99.90
5743;DHT22;2896;53.500;10.020;2023-02-26T09:34:10;3.00;99.90
5743;DHT22;2896;53.500;10.020;2023-02-26T09:36:37;3.10;99.90
5743;DHT22;2896;53.500;10.020;2023-02-26T09:39:03;3.20;99.90
5743;DHT22;2896;53.500;10.020;2023-02-26T09:41:31;2.90;99.90
5743;DHT22;2896;53.500;10.020;2023-02-26T09:44:08;3.00;99.90
5743;DHT22;2896;53.500;10.020;2023-02-26T09:46:45;3.00;99.90
5743;DHT22;2896;53.500;10.020;2023-02-26T09:49:19;3.30;99.90
5743;DHT22;2896;53.500;10.020;2023-02-26T09:51:50;3.50;99.90
5743;DHT22;2896;53.500;10.020;2023-02-26T09:54:21;3.60;99.90
5743;DHT22;2896;53.500;10.020;2023-02-26T09:56:49;3.70;99.90
5743;DHT22;2896;53.500;10.020;2023-02-26T09:59:17;3.80;99.90
5743;DHT22;2896;53.500;10.020;2023-02-26T10:01:50;3.90;99.90
5743;DHT22;2896;53.500;10.020;2023-02-26T10:04:28;3.90;99.90
5743;DHT22;2896;53.500;10.020;2023-02-26T10:07:09;3.90;99.90
5743;DHT22;2896;53.500;10.020;2023-02-26T10:09:50;4.00;99.90
5743;DHT22;2896;53.500;10.020;2023-02-26T10:12:22;4.10;99.90
5743;DHT22;2896;53.500;10.020;2023-02-26T10:14:53;4.30;99.90
5743;DHT22;2896;53.500;10.020;2023-02-26T10:17:28;4.40;99.90
5743;DHT22;2896;53.500;10.020;2023-02-26T10:19:59;4.60;99.90
5743;DHT22;2896;53.500;10.020;2023-02-26T10:22:32;4.40;99.90
5743;DHT22;2896;53.500;10.020;2023-02-26T10:25:05;4.60;99.90
5743;DHT22;2896;53.500;10.020;2023-02-26T10:27:43;4.70;99.90
5743;DHT22;2896;53.500;10.020;2023-02-26T10:30:18;4.90;99.90
5743;DHT22;2896;53.500;10.020;2023-02-26T10:32:57;4.70;99.90
5743;DHT22;2896;53.500;10.020;2023-02-26T10:35:28;4.30;99.90
5743;DHT22;2896;53.500;10.020;2023-02-26T10:37:58;4.20;99.90
5743;DHT22;2896;53.500;10.020;2023-02-26T10:40:31;4.00;99.90
5743;DHT22;2896;53.500;10.020;2023-02-26T10:42:59;4.00;99.90
5743;DHT22;2896;53.500;10.020;2023-02-26T10:45:41;4.10;99.90
5743;DHT22;2896;53.500;10.020;2023-02-26T10:48:22;4.30;99.90
5743;DHT22;2896;53.500;10.020;2023-02-26T10:50:52;4.40;99.90
5743;DHT22;2896;53.500;10.020;2023-02-26T10:53:20;4.80;99.90
5743;DHT22;2896;53.500;10.020;2023-02-26T10:55:50;5.10;99.90
5743;DHT22;2896;53.500;10.020;2023-02-26T10:58:23;5.40;99.90
5743;DHT22;2896;53.500;10.020;2023-02-26T11:00:53;5.50;99.90
5743;DHT22;2896;53.500;10.020;2023-02-26T11:03:26;5.50;99.90
5743;DHT22;2896;53.500;10.020;2023-02-26T11:05:54;5.80;99.90
5743;DHT22;2896;53.500;10.020;2023-02-26T11:08:25;6.30;99.90
5743;DHT22;2896;53.500;10.020;2023-02-26T11:10:54;6.00;99.90
5743;DHT22;2896;53.500;10.020;2023-02-26T11:13:22;5.90;99.90
5743;DHT22;2896;53.500;10.020;2023-02-26T11:15:51;5.60;99.90
5743;DHT22;2896;53.500;10.020;2023-02-26T11:18:22;5.60;99.90
5743;DHT22;2896;53.500;10.020;2023-02-26T11:20:53;5.20;99.90
5743;DHT22;2896;53.500;10.020;2023-02-26T11:23:21;5.10;99.90
5743;DHT22;2896;53.500;10.020;2023-02-26T11:25:53;5.10;99.90
5743;DHT22;2896;53.500;10.020;2023-02-26T11:28:22;5.10;99.90
5743;DHT22;2896;53.500;10.020;2023-02-26T11:30:51;5.10;99.90
5743;DHT22;2896;53.500;10.020;2023-02-26T11:33:23;5.30;99.90
5743;DHT22;2896;53.500;10.020;2023-02-26T11:35:54;2.90;99.90
5743;DHT22;2896;53.500;10.020;2023-02-26T11:38:25;5.00;99.90
5743;DHT22;2896;53.500;10.020;2023-02-26T11:40:54;5.20;99.90
5743;DHT22;2896;53.500;10.020;2023-02-26T11:43:23;5.10;99.90
5743;DHT22;2896;53.500;10.020;2023-02-26T11:45:53;5.40;99.90
5743;DHT22;2896;53.500;10.020;2023-02-26T11:48:24;5.30;99.90
5743;DHT22;2896;53.500;10.020;2023-02-26T11:50:55;5.20;99.90
5743;DHT22;2896;53.500;10.020;2023-02-26T11:53:25;5.00;99.90
5743;DHT22;2896;53.500;10.020;2023-02-26T11:55:58;5.20;99.90
5743;DHT22;2896;53.500;10.020;2023-02-26T11:58:27;5.60;99.90
5743;DHT22;2896;53.500;10.020;2023-02-26T12:00:57;5.80;99.90
5743;DHT22;2896;53.500;10.020;2023-02-26T12:03:28;5.60;99.90
5743;DHT22;2896;53.500;10.020;2023-02-26T12:05:57;5.70;99.90
5743;DHT22;2896;53.500;10.020;2023-02-26T12:08:29;6.20;99.90
5743;DHT22;2896;53.500;10.020;2023-02-26T12:11:10;6.10;99.90
5743;DHT22;2896;53.500;10.020;2023-02-26T12:13:48;5.90;99.90
5743;DHT22;2896;53.500;10.020;2023-02-26T12:16:26;5.30;99.90
5743;DHT22;2896;53.500;10.020;2023-02-26T12:19:05;5.50;99.90
5743;DHT22;2896;53.500;10.020;2023-02-26T12:21:49;5.50;99.90
5743;DHT22;2896;53.500;10.020;2023-02-26T12:24:37;5.60;99.90
5743;DHT22;2896;53.500;10.020;2023-02-26T12:27:16;5.70;99.90
5743;DHT22;2896;53.500;10.020;2023-02-26T12:30:00;6.10;99.90
5743;DHT22;2896;53.500;10.020;2023-02-26T12:32:52;5.40;99.90
5743;DHT22;2896;53.500;10.020;2023-02-26T12:35:39;5.20;99.90
5743;DHT22;2896;53.500;10.020;2023-02-26T12:38:18;5.70;99.90
5743;DHT22;2896;53.500;10.020;2023-02-26T12:40:58;5.40;99.90
5743;DHT22;2896;53.500;10.020;2023-02-26T12:43:34;5.80;99.90
5743;DHT22;2896;53.500;10.020;2023-02-26T12:46:21;5.90;99.90
5743;DHT22;2896;53.500;10.020;2023-02-26T12:52:11;7.10;99.90
5743;DHT22;2896;53.500;10.020;2023-02-26T12:55:03;8.00;99.90
5743;DHT22;2896;53.500;10.020;2023-02-26T12:57:53;8.10;99.90
5743;DHT22;2896;53.500;10.020;2023-02-26T13:00:45;8.60;99.90
5743;DHT22;2896;53.500;10.020;2023-02-26T13:06:36;7.20;99.90
5743;DHT22;2896;53.500;10.020;2023-02-26T13:09:15;7.10;99.90
5743;DHT22;2896;53.500;10.020;2023-02-26T13:11:58;6.60;99.90
5743;DHT22;2896;53.500;10.020;2023-02-26T13:14:35;6.60;99.90
5743;DHT22;2896;53.500;10.020;2023-02-26T13:17:07;6.60;99.90
5743;DHT22;2896;53.500;10.020;2023-02-26T13:19:41;6.50;99.90
5743;DHT22;2896;53.500;10.020;2023-02-26T13:22:16;6.20;99.90
5743;DHT22;2896;53.500;10.020;2023-02-26T13:24:49;6.40;99.90
5743;DHT22;2896;53.500;10.020;2023-02-26T13:27:17;6.50;99.90
5743;DHT22;2896;53.500;10.020;2023-02-26T13:29:48;6.80;99.90
5743;DHT22;2896;53.500;10.020;2023-02-26T13:32:19;6.50;99.90
5743;DHT22;2896;53.500;10.020;2023-02-26T13:34:53;6.20;99.90
5743;DHT22;2896;53.500;10.020;2023-02-26T13:37:23;6.20;99.90
5743;DHT22;2896;53.500;10.020;2023-02-26T13:40:01;6.30;99.90
5743;DHT22;2896;53.500;10.020;2023-02-26T13:42:37;6.00;99.90
5743;DHT22;2896;53.500;10.020;2023-02-26T13:45:20;6.00;99.90
5743;DHT22;2896;53.500;10.020;2023-02-26T13:47:57;5.90;99.90
5743;DHT22;2896;53.500;10.020;2023-02-26T13:50:34;5.70;99.90
5743;DHT22;2896;53.500;10.020;2023-02-26T13:53:35;5.80;99.90
5743;DHT22;2896;53.500;10.020;2023-02-26T13:56:12;5.60;99.90
5743;DHT22;2896;53.500;10.020;2023-02-26T13:58:41;5.40;99.90
5743;DHT22;2896;53.500;10.020;2023-02-26T14:01:13;5.60;99.90
5743;DHT22;2896;53.500;10.020;2023-02-26T14:03:45;5.70;99.90
5743;DHT22;2896;53.500;10.020;2023-02-26T14:06:38;5.70;99.90
5743;DHT22;2896;53.500;10.020;2023-02-26T14:09:33;5.90;99.90
5743;DHT22;2896;53.500;10.020;2023-02-26T14:12:01;5.70;99.90
5743;DHT22;2896;53.500;10.020;2023-02-26T14:14:39;5.70;99.90
5743;DHT22;2896;53.500;10.020;2023-02-26T14:17:37;5.60;99.90
5743;DHT22;2896;53.500;10.020;2023-02-26T14:20:19;5.60;99.90
5743;DHT22;2896;53.500;10.020;2023-02-26T14:22:48;5.50;99.90
5743;DHT22;2896;53.500;10.020;2023-02-26T14:25:20;5.70;99.90
5743;DHT22;2896;53.500;10.020;2023-02-26T14:31:21;6.40;99.90
5743;DHT22;2896;53.500;10.020;2023-02-26T14:33:59;6.30;99.90
5743;DHT22;2896;53.500;10.020;2023-02-26T14:36:35;6.50;99.90
5743;DHT22;2896;53.500;10.020;2023-02-26T14:39:05;6.30;99.90
5743;DHT22;2896;53.500;10.020;2023-02-26T14:41:37;6.60;99.90
5743;DHT22;2896;53.500;10.020;2023-02-26T14:44:10;6.40;99.90
5743;DHT22;2896;53.500;10.020;2023-02-26T14:46:41;6.40;99.90
5743;DHT22;2896;53.500;10.020;2023-02-26T14:49:14;6.50;99.90
5743;DHT22;2896;53.500;10.020;2023-02-26T14:51:49;7.00;99.90
5743;DHT22;2896;53.500;10.020;2023-02-26T14:54:33;7.40;99.90
5743;DHT22;2896;53.500;10.020;2023-02-26T14:57:08;7.10;99.90
5743;DHT22;2896;53.500;10.020;2023-02-26T14:59:50;6.90;99.90
5743;DHT22;2896;53.500;10.020;2023-02-26T15:02:27;6.90;99.90
5743;DHT22;2896;53.500;10.020;2023-02-26T15:05:16;6.90;99.90
5743;DHT22;2896;53.500;10.020;2023-02-26T15:08:02;7.30;99.90
5743;DHT22;2896;53.500;10.020;2023-02-26T15:10:40;7.10;99.90
5743;DHT22;2896;53.500;10.020;2023-02-26T15:13:21;6.60;99.90
5743;DHT22;2896;53.500;10.020;2023-02-26T15:15:54;6.40;99.90
5743;DHT22;2896;53.500;10.020;2023-02-26T15:18:41;6.10;99.90
5743;DHT22;2896;53.500;10.020;2023-02-26T15:21:22;6.00;99.90
5743;DHT22;2896;53.500;10.020;2023-02-26T15:23:53;5.70;99.90
5743;DHT22;2896;53.500;10.020;2023-02-26T15:26:22;5.40;99.90
5743;DHT22;2896;53.500;10.020;2023-02-26T15:28:51;5.30;99.90
5743;DHT22;2896;53.500;10.020;2023-02-26T15:31:20;5.10;99.90
5743;DHT22;2896;53.500;10.020;2023-02-26T15:33:49;4.90;99.90
5743;DHT22;2896;53.500;10.020;2023-02-26T15:36:18;4.80;99.90
5743;DHT22;2896;53.500;10.020;2023-02-26T15:38:52;4.70;99.90
5743;DHT22;2896;53.500;10.020;2023-02-26T15:41:19;4.70;99.90
5743;DHT22;2896;53.500;10.020;2023-02-26T15:43:48;4.70;99.90
5743;DHT22;2896;53.500;10.020;2023-02-26T15:46:16;4.70;99.90
5743;DHT22;2896;53.500;10.020;2023-02-26T15:48:43;4.80;99.90
5743;DHT22;2896;53.500;10.020;2023-02-26T15:51:13;5.00;99.90
5743;DHT22;2896;53.500;10.020;2023-02-26T15:53:43;5.10;99.90
5743;DHT22;2896;53.500;10.020;2023-02-26T15:56:13;5.20;99.90
5743;DHT22;2896;53.500;10.020;2023-02-26T15:58:46;5.20;99.90
5743;DHT22;2896;53.500;10.020;2023-02-26T16:01:16;5.10;99.90
5743;DHT22;2896;53.500;10.020;2023-02-26T16:03:45;5.10;99.90
5743;DHT22;2896;53.500;10.020;2023-02-26T16:06:17;4.90;99.90
5743;DHT22;2896;53.500;10.020;2023-02-26T16:08:44;4.90;99.90
5743;DHT22;2896;53.500;10.020;2023-02-26T16:11:12;4.70;99.90
5743;DHT22;2896;53.500;10.020;2023-02-26T16:13:40;4.70;99.90
5743;DHT22;2896;53.500;10.020;2023-02-26T16:16:11;4.70;99.90
5743;DHT22;2896;53.500;10.020;2023-02-26T16:18:41;4.70;99.90
5743;DHT22;2896;53.500;10.020;2023-02-26T16:21:09;4.50;99.90
5743;DHT22;2896;53.500;10.020;2023-02-26T16:23:44;4.40;99.90
5743;DHT22;2896;53.500;10.020;2023-02-26T16:26:16;4.20;99.90
5743;DHT22;2896;53.500;10.020;2023-02-26T16:28:44;4.10;99.90
5743;DHT22;2896;53.500;10.020;2023-02-26T16:31:17;4.10;99.90
5743;DHT22;2896;53.500;10.020;2023-02-26T16:33:54;4.00;99.90
5743;DHT22;2896;53.500;10.020;2023-02-26T16:36:24;4.00;99.90
5743;DHT22;2896;53.500;10.020;2023-02-26T16:39:00;3.80;99.90